sensor_id;sensor_type;location;lat;lon;timestamp;P1;durP1;ratioP1;P2;durP2;ratioP2
63438;SDS011;49567;48.958;8.294;2023-04-06T00:02:14;6.07;;;3.00;;
63438;SDS011;49567;48.958;8.294;2023-04-06T00:04:40;3.20;;;2.90;;
63438;SDS011;49567;48.958;8.294;2023-04-06T00:07:05;5.83;;;3.20;;
63438;SDS011;49567;48.958;8.294;2023-04-06T00:09:31;3.57;;;2.73;;
63438;SDS011;49567;48.958;8.294;2023-04-06T00:11:56;7.60;;;3.00;;
63438;SDS011;49567;48.958;8.294;2023-04-06T00:14:22;6.05;;;3.00;;
63438;SDS011;49567;48.958;8.294;2023-04-06T00:16:48;6.23;;;3.53;;
63438;SDS011;49567;48.958;8.294;2023-04-06T00:19:13;4.03;;;3.20;;
63438;SDS011;49567;48.958;8.294;2023-04-06T00:21:38;5.80;;;3.73;;
63438;SDS011;49567;48.958;8.294;2023-04-06T00:24:04;4.13;;;3.63;;
63438;SDS011;49567;48.958;8.294;2023-04-06T00:26:29;5.63;;;3.40;;
63438;SDS011;49567;48.958;8.294;2023-04-06T00:28:54;5.63;;;3.10;;
63438;SDS011;49567;48.958;8.294;2023-04-06T00:31:20;4.45;;;3.10;;
63438;SDS011;49567;48.958;8.294;2023-04-06T00:33:45;6.27;;;3.40;;
63438;SDS011;49567;48.958;8.294;2023-04-06T00:36:10;5.40;;;3.35;;
63438;SDS011;49567;48.958;8.294;2023-04-06T00:38:35;5.43;;;3.30;;
63438;SDS011;49567;48.958;8.294;2023-04-06T00:41:01;4.57;;;3.60;;
63438;SDS011;49567;48.958;8.294;2023-04-06T00:43:28;3.33;;;2.97;;
63438;SDS011;49567;48.958;8.294;2023-04-06T00:45:53;5.33;;;2.90;;
63438;SDS011;49567;48.958;8.294;2023-04-06T00:48:19;3.47;;;3.00;;
63438;SDS011;49567;48.958;8.294;2023-04-06T00:50:44;2.80;;;2.60;;
63438;SDS011;49567;48.958;8.294;2023-04-06T00:53:09;4.40;;;2.72;;
63438;SDS011;49567;48.958;8.294;2023-04-06T00:55:35;2.70;;;2.53;;
63438;SDS011;49567;48.958;8.294;2023-04-06T00:58:00;2.77;;;2.57;;
63438;SDS011;49567;48.958;8.294;2023-04-06T01:00:26;3.27;;;2.50;;
63438;SDS011;49567;48.958;8.294;2023-04-06T01:02:52;3.72;;;2.75;;
63438;SDS011;49567;48.958;8.294;2023-04-06T01:05:17;4.38;;;3.03;;
63438;SDS011;49567;48.958;8.294;2023-04-06T01:07:43;7.72;;;2.97;;
63438;SDS011;49567;48.958;8.294;2023-04-06T01:10:08;2.80;;;2.60;;
63438;SDS011;49567;48.958;8.294;2023-04-06T01:12:34;3.73;;;2.50;;
63438;SDS011;49567;48.958;8.294;2023-04-06T01:14:59;2.87;;;2.37;;
63438;SDS011;49567;48.958;8.294;2023-04-06T01:17:25;3.20;;;2.90;;
63438;SDS011;49567;48.958;8.294;2023-04-06T01:19:50;3.75;;;2.60;;
63438;SDS011;49567;48.958;8.294;2023-04-06T01:22:18;3.22;;;2.92;;
63438;SDS011;49567;48.958;8.294;2023-04-06T01:24:44;2.92;;;2.63;;
63438;SDS011;49567;48.958;8.294;2023-04-06T01:27:10;4.72;;;2.60;;
63438;SDS011;49567;48.958;8.294;2023-04-06T01:29:36;2.87;;;2.60;;
63438;SDS011;49567;48.958;8.294;2023-04-06T01:32:01;3.17;;;2.53;;
63438;SDS011;49567;48.958;8.294;2023-04-06T01:34:26;2.90;;;2.70;;
63438;SDS011;49567;48.958;8.294;2023-04-06T01:36:51;3.27;;;2.97;;
63438;SDS011;49567;48.958;8.294;2023-04-06T01:39:17;3.50;;;2.42;;
63438;SDS011;49567;48.958;8.294;2023-04-06T01:41:42;4.97;;;2.93;;
63438;SDS011;49567;48.958;8.294;2023-04-06T01:44:07;3.13;;;2.73;;
63438;SDS011;49567;48.958;8.294;2023-04-06T01:46:33;5.00;;;3.25;;
63438;SDS011;49567;48.958;8.294;2023-04-06T01:48:58;3.37;;;3.07;;
63438;SDS011;49567;48.958;8.294;2023-04-06T01:51:23;3.30;;;2.97;;
63438;SDS011;49567;48.958;8.294;2023-04-06T01:53:50;3.53;;;3.22;;
63438;SDS011;49567;48.958;8.294;2023-04-06T01:56:16;4.38;;;3.97;;
63438;SDS011;49567;48.958;8.294;2023-04-06T01:58:41;5.93;;;5.40;;
63438;SDS011;49567;48.958;8.294;2023-04-06T02:01:07;12.27;;;11.47;;
63438;SDS011;49567;48.958;8.294;2023-04-06T02:03:32;13.80;;;12.87;;
63438;SDS011;49567;48.958;8.294;2023-04-06T02:05:57;23.30;;;15.70;;
63438;SDS011;49567;48.958;8.294;2023-04-06T02:08:22;21.30;;;16.80;;
63438;SDS011;49567;48.958;8.294;2023-04-06T02:10:48;21.95;;;19.60;;
63438;SDS011;49567;48.958;8.294;2023-04-06T02:13:13;28.57;;;25.87;;
63438;SDS011;49567;48.958;8.294;2023-04-06T02:15:38;23.03;;;20.73;;
63438;SDS011;49567;48.958;8.294;2023-04-06T02:18:03;33.20;;;30.63;;
63438;SDS011;49567;48.958;8.294;2023-04-06T02:20:29;242.60;;;230.10;;
63438;SDS011;49567;48.958;8.294;2023-04-06T02:22:56;708.90;;;663.38;;
63438;SDS011;49567;48.958;8.294;2023-04-06T02:25:21;1180.90;;;999.90;;
63438;SDS011;49567;48.958;8.294;2023-04-06T02:27:47;1346.57;;;999.90;;
63438;SDS011;49567;48.958;8.294;2023-04-06T02:30:12;1734.57;;;999.90;;
63438;SDS011;49567;48.958;8.294;2023-04-06T02:32:37;1789.50;;;999.90;;
63438;SDS011;49567;48.958;8.294;2023-04-06T02:35:02;1999.90;;;999.90;;
63438;SDS011;49567;48.958;8.294;2023-04-06T02:37:28;1999.90;;;999.90;;
63438;SDS011;49567;48.958;8.294;2023-04-06T02:39:53;1999.90;;;999.90;;
63438;SDS011;49567;48.958;8.294;2023-04-06T02:42:18;1999.90;;;999.90;;
63438;SDS011;49567;48.958;8.294;2023-04-06T02:44:44;1999.90;;;999.90;;
63438;SDS011;49567;48.958;8.294;2023-04-06T02:47:09;1999.90;;;999.90;;
63438;SDS011;49567;48.958;8.294;2023-04-06T02:49:35;1999.90;;;999.90;;
63438;SDS011;49567;48.958;8.294;2023-04-06T02:52:01;1999.90;;;999.90;;
63438;SDS011;49567;48.958;8.294;2023-04-06T02:54:27;1999.90;;;999.90;;
63438;SDS011;49567;48.958;8.294;2023-04-06T02:56:52;1999.90;;;999.90;;
63438;SDS011;49567;48.958;8.294;2023-04-06T02:59:17;1999.90;;;999.90;;
63438;SDS011;49567;48.958;8.294;2023-04-06T03:01:43;1999.90;;;999.90;;
63438;SDS011;49567;48.958;8.294;2023-04-06T03:04:08;1999.90;;;999.90;;
63438;SDS011;49567;48.958;8.294;2023-04-06T03:06:33;1999.90;;;999.90;;
63438;SDS011;49567;48.958;8.294;2023-04-06T03:08:58;1999.90;;;999.90;;
63438;SDS011;49567;48.958;8.294;2023-04-06T03:11:24;1999.90;;;999.90;;
63438;SDS011;49567;48.958;8.294;2023-04-06T03:13:51;1999.90;;;999.90;;
63438;SDS011;49567;48.958;8.294;2023-04-06T03:16:16;1999.90;;;999.90;;
63438;SDS011;49567;48.958;8.294;2023-04-06T03:18:41;1999.90;;;999.90;;
63438;SDS011;49567;48.958;8.294;2023-04-06T03:21:07;1999.90;;;999.90;;
63438;SDS011;49567;48.958;8.294;2023-04-06T03:23:32;1999.90;;;999.90;;
63438;SDS011;49567;48.958;8.294;2023-04-06T03:25:57;1999.90;;;999.90;;
63438;SDS011;49567;48.958;8.294;2023-04-06T03:28:22;1999.90;;;999.90;;
63438;SDS011;49567;48.958;8.294;2023-04-06T03:30:48;1999.90;;;999.90;;
63438;SDS011;49567;48.958;8.294;2023-04-06T03:33:14;1999.90;;;999.90;;
63438;SDS011;49567;48.958;8.294;2023-04-06T03:35:39;1999.90;;;999.90;;
63438;SDS011;49567;48.958;8.294;2023-04-06T03:38:04;1999.90;;;999.90;;
63438;SDS011;49567;48.958;8.294;2023-04-06T03:40:30;1999.90;;;999.90;;
63438;SDS011;49567;48.958;8.294;2023-04-06T03:42:56;1999.90;;;999.90;;
63438;SDS011;49567;48.958;8.294;2023-04-06T03:45:21;1999.90;;;999.90;;
63438;SDS011;49567;48.958;8.294;2023-04-06T03:47:47;1999.90;;;999.90;;
63438;SDS011;49567;48.958;8.294;2023-04-06T03:50:12;1999.90;;;999.90;;
63438;SDS011;49567;48.958;8.294;2023-04-06T03:52:37;1999.90;;;999.90;;
63438;SDS011;49567;48.958;8.294;2023-04-06T03:55:02;1999.90;;;999.90;;
63438;SDS011;49567;48.958;8.294;2023-04-06T03:57:28;1999.90;;;999.90;;
63438;SDS011;49567;48.958;8.294;2023-04-06T03:59:53;1999.90;;;999.90;;
63438;SDS011;49567;48.958;8.294;2023-04-06T04:02:19;1999.90;;;999.90;;
63438;SDS011;49567;48.958;8.294;2023-04-06T04:04:44;1999.90;;;999.90;;
63438;SDS011;49567;48.958;8.294;2023-04-06T04:07:10;1999.90;;;999.90;;
63438;SDS011;49567;48.958;8.294;2023-04-06T04:09:36;1999.90;;;999.90;;
63438;SDS011;49567;48.958;8.294;2023-04-06T04:12:02;1999.90;;;999.90;;
63438;SDS011;49567;48.958;8.294;2023-04-06T04:14:27;1999.90;;;999.90;;
63438;SDS011;49567;48.958;8.294;2023-04-06T04:16:52;1999.90;;;999.90;;
63438;SDS011;49567;48.958;8.294;2023-04-06T04:19:18;1999.90;;;999.90;;
63438;SDS011;49567;48.958;8.294;2023-04-06T04:21:43;1999.90;;;999.90;;
63438;SDS011;49567;48.958;8.294;2023-04-06T04:24:10;1999.90;;;999.90;;
63438;SDS011;49567;48.958;8.294;2023-04-06T04:26:35;1999.90;;;999.90;;
63438;SDS011;49567;48.958;8.294;2023-04-06T04:29:00;1999.90;;;999.90;;
63438;SDS011;49567;48.958;8.294;2023-04-06T04:31:26;1999.90;;;999.90;;
63438;SDS011;49567;48.958;8.294;2023-04-06T04:33:51;1999.90;;;999.90;;
63438;SDS011;49567;48.958;8.294;2023-04-06T04:36:16;1999.90;;;999.90;;
63438;SDS011;49567;48.958;8.294;2023-04-06T04:38:41;1999.90;;;999.90;;
63438;SDS011;49567;48.958;8.294;2023-04-06T04:41:07;1999.90;;;999.90;;
63438;SDS011;49567;48.958;8.294;2023-04-06T04:43:32;1999.90;;;999.90;;
63438;SDS011;49567;48.958;8.294;2023-04-06T04:45:57;1999.90;;;999.90;;
63438;SDS011;49567;48.958;8.294;2023-04-06T04:48:24;1999.90;;;999.90;;
63438;SDS011;49567;48.958;8.294;2023-04-06T04:50:49;1999.90;;;999.90;;
63438;SDS011;49567;48.958;8.294;2023-04-06T04:53:14;1999.90;;;999.90;;
63438;SDS011;49567;48.958;8.294;2023-04-06T04:55:39;1999.90;;;999.90;;
63438;SDS011;49567;48.958;8.294;2023-04-06T04:58:05;1999.90;;;999.90;;
63438;SDS011;49567;48.958;8.294;2023-04-06T05:00:30;1999.90;;;999.90;;
63438;SDS011;49567;48.958;8.294;2023-04-06T05:02:56;1999.90;;;999.90;;
63438;SDS011;49567;48.958;8.294;2023-04-06T05:05:21;1999.90;;;999.90;;
63438;SDS011;49567;48.958;8.294;2023-04-06T05:07:46;1999.90;;;999.90;;
63438;SDS011;49567;48.958;8.294;2023-04-06T05:10:12;1999.90;;;999.90;;
63438;SDS011;49567;48.958;8.294;2023-04-06T05:12:37;1999.90;;;999.90;;
63438;SDS011;49567;48.958;8.294;2023-04-06T05:15:02;1999.90;;;999.90;;
63438;SDS011;49567;48.958;8.294;2023-04-06T05:17:28;1999.90;;;999.90;;
63438;SDS011;49567;48.958;8.294;2023-04-06T05:19:53;1999.90;;;999.90;;
63438;SDS011;49567;48.958;8.294;2023-04-06T05:22:19;1999.90;;;999.90;;
63438;SDS011;49567;48.958;8.294;2023-04-06T05:24:44;1999.90;;;999.90;;
63438;SDS011;49567;48.958;8.294;2023-04-06T05:27:10;1999.90;;;999.90;;
63438;SDS011;49567;48.958;8.294;2023-04-06T05:29:35;1999.90;;;999.90;;
63438;SDS011;49567;48.958;8.294;2023-04-06T05:32:01;1999.90;;;999.90;;
63438;SDS011;49567;48.958;8.294;2023-04-06T05:34:26;1999.90;;;999.90;;
63438;SDS011;49567;48.958;8.294;2023-04-06T05:36:51;1999.90;;;999.90;;
63438;SDS011;49567;48.958;8.294;2023-04-06T05:39:17;1999.90;;;999.90;;
63438;SDS011;49567;48.958;8.294;2023-04-06T05:41:42;1999.90;;;999.90;;
63438;SDS011;49567;48.958;8.294;2023-04-06T05:44:07;1999.90;;;999.90;;
63438;SDS011;49567;48.958;8.294;2023-04-06T05:46:32;1999.90;;;999.90;;
63438;SDS011;49567;48.958;8.294;2023-04-06T05:48:58;1999.90;;;999.90;;
63438;SDS011;49567;48.958;8.294;2023-04-06T05:51:23;1999.90;;;999.90;;
63438;SDS011;49567;48.958;8.294;2023-04-06T05:53:48;1999.90;;;999.90;;
63438;SDS011;49567;48.958;8.294;2023-04-06T05:56:14;1999.90;;;999.90;;
63438;SDS011;49567;48.958;8.294;2023-04-06T05:58:39;1836.07;;;999.90;;
63438;SDS011;49567;48.958;8.294;2023-04-06T06:01:04;1246.87;;;999.90;;
63438;SDS011;49567;48.958;8.294;2023-04-06T06:03:30;998.70;;;920.63;;
63438;SDS011;49567;48.958;8.294;2023-04-06T06:06:02;141.10;;;134.27;;
63438;SDS011;49567;48.958;8.294;2023-04-06T06:08:28;13.45;;;12.45;;
63438;SDS011;49567;48.958;8.294;2023-04-06T06:10:53;9.40;;;4.73;;
63438;SDS011;49567;48.958;8.294;2023-04-06T06:13:19;4.87;;;4.17;;
63438;SDS011;49567;48.958;8.294;2023-04-06T06:15:44;7.37;;;3.97;;
63438;SDS011;49567;48.958;8.294;2023-04-06T06:18:09;8.77;;;3.77;;
63438;SDS011;49567;48.958;8.294;2023-04-06T06:20:35;5.32;;;4.32;;
63438;SDS011;49567;48.958;8.294;2023-04-06T06:23:00;4.90;;;4.13;;
63438;SDS011;49567;48.958;8.294;2023-04-06T06:25:25;4.87;;;4.47;;
63438;SDS011;49567;48.958;8.294;2023-04-06T06:27:51;8.33;;;5.73;;
63438;SDS011;49567;48.958;8.294;2023-04-06T06:30:16;35.70;;;28.97;;
63438;SDS011;49567;48.958;8.294;2023-04-06T06:32:41;14.25;;;9.38;;
63438;SDS011;49567;48.958;8.294;2023-04-06T06:35:07;7.50;;;5.00;;
63438;SDS011;49567;48.958;8.294;2023-04-06T06:37:32;6.20;;;4.83;;
63438;SDS011;49567;48.958;8.294;2023-04-06T06:39:57;8.20;;;6.13;;
63438;SDS011;49567;48.958;8.294;2023-04-06T06:42:23;10.07;;;6.37;;
63438;SDS011;49567;48.958;8.294;2023-04-06T06:44:48;8.13;;;5.27;;
63438;SDS011;49567;48.958;8.294;2023-04-06T06:47:13;5.90;;;4.80;;
63438;SDS011;49567;48.958;8.294;2023-04-06T06:49:38;7.43;;;5.47;;
63438;SDS011;49567;48.958;8.294;2023-04-06T06:52:04;7.32;;;5.50;;
63438;SDS011;49567;48.958;8.294;2023-04-06T06:54:29;10.43;;;6.63;;
63438;SDS011;49567;48.958;8.294;2023-04-06T06:56:54;9.97;;;6.40;;
63438;SDS011;49567;48.958;8.294;2023-04-06T06:59:20;10.63;;;6.77;;
63438;SDS011;49567;48.958;8.294;2023-04-06T07:01:45;11.43;;;6.57;;
63438;SDS011;49567;48.958;8.294;2023-04-06T07:04:10;6.40;;;5.63;;
63438;SDS011;49567;48.958;8.294;2023-04-06T07:06:36;9.20;;;5.67;;
63438;SDS011;49567;48.958;8.294;2023-04-06T07:09:01;7.70;;;5.70;;
63438;SDS011;49567;48.958;8.294;2023-04-06T07:11:28;7.82;;;6.15;;
63438;SDS011;49567;48.958;8.294;2023-04-06T07:13:53;9.02;;;6.00;;
63438;SDS011;49567;48.958;8.294;2023-04-06T07:16:19;8.75;;;5.85;;
63438;SDS011;49567;48.958;8.294;2023-04-06T07:18:44;12.73;;;6.60;;
63438;SDS011;49567;48.958;8.294;2023-04-06T07:21:10;6.57;;;5.87;;
63438;SDS011;49567;48.958;8.294;2023-04-06T07:23:35;10.33;;;7.30;;
63438;SDS011;49567;48.958;8.294;2023-04-06T07:26:00;197.23;;;187.20;;
63438;SDS011;49567;48.958;8.294;2023-04-06T07:28:26;695.10;;;651.67;;
63438;SDS011;49567;48.958;8.294;2023-04-06T07:30:51;587.53;;;553.60;;
63438;SDS011;49567;48.958;8.294;2023-04-06T07:33:16;863.43;;;805.17;;
63438;SDS011;49567;48.958;8.294;2023-04-06T07:35:41;1057.30;;;972.88;;
63438;SDS011;49567;48.958;8.294;2023-04-06T07:38:07;1913.97;;;999.90;;
63438;SDS011;49567;48.958;8.294;2023-04-06T07:40:32;1999.90;;;999.90;;
63438;SDS011;49567;48.958;8.294;2023-04-06T07:42:57;1999.90;;;999.90;;
63438;SDS011;49567;48.958;8.294;2023-04-06T07:45:23;1999.90;;;999.90;;
63438;SDS011;49567;48.958;8.294;2023-04-06T07:47:48;1999.90;;;999.90;;
63438;SDS011;49567;48.958;8.294;2023-04-06T07:50:14;1999.90;;;999.90;;
63438;SDS011;49567;48.958;8.294;2023-04-06T07:52:40;1999.90;;;999.90;;
63438;SDS011;49567;48.958;8.294;2023-04-06T07:55:05;1999.90;;;999.90;;
63438;SDS011;49567;48.958;8.294;2023-04-06T07:57:31;1999.90;;;999.90;;
63438;SDS011;49567;48.958;8.294;2023-04-06T07:59:56;1999.90;;;999.90;;
63438;SDS011;49567;48.958;8.294;2023-04-06T08:02:21;1999.90;;;999.90;;
63438;SDS011;49567;48.958;8.294;2023-04-06T08:04:47;1999.90;;;999.90;;
63438;SDS011;49567;48.958;8.294;2023-04-06T08:07:12;1999.90;;;999.90;;
63438;SDS011;49567;48.958;8.294;2023-04-06T08:09:37;1999.90;;;999.90;;
63438;SDS011;49567;48.958;8.294;2023-04-06T08:12:03;1999.90;;;999.90;;
63438;SDS011;49567;48.958;8.294;2023-04-06T08:14:28;1999.90;;;999.90;;
63438;SDS011;49567;48.958;8.294;2023-04-06T08:16:53;1999.90;;;999.90;;
63438;SDS011;49567;48.958;8.294;2023-04-06T08:19:19;1999.90;;;999.90;;
63438;SDS011;49567;48.958;8.294;2023-04-06T08:21:45;1999.90;;;999.90;;
63438;SDS011;49567;48.958;8.294;2023-04-06T08:24:11;1999.90;;;999.90;;
63438;SDS011;49567;48.958;8.294;2023-04-06T08:26:37;1999.90;;;999.90;;
63438;SDS011;49567;48.958;8.294;2023-04-06T08:29:02;1999.90;;;999.90;;
63438;SDS011;49567;48.958;8.294;2023-04-06T08:31:28;1999.90;;;999.90;;
63438;SDS011;49567;48.958;8.294;2023-04-06T08:33:55;1999.90;;;999.90;;
63438;SDS011;49567;48.958;8.294;2023-04-06T08:36:20;1999.90;;;999.90;;
63438;SDS011;49567;48.958;8.294;2023-04-06T08:38:47;1999.90;;;999.90;;
63438;SDS011;49567;48.958;8.294;2023-04-06T08:41:14;1999.90;;;999.90;;
63438;SDS011;49567;48.958;8.294;2023-04-06T08:46:11;1999.90;;;999.90;;
63438;SDS011;49567;48.958;8.294;2023-04-06T08:48:38;1999.90;;;999.90;;
63438;SDS011;49567;48.958;8.294;2023-04-06T08:51:04;1999.90;;;999.90;;
63438;SDS011;49567;48.958;8.294;2023-04-06T08:53:30;1999.90;;;999.90;;
63438;SDS011;49567;48.958;8.294;2023-04-06T08:55:56;1999.90;;;999.90;;
63438;SDS011;49567;48.958;8.294;2023-04-06T08:58:23;1999.90;;;999.90;;
63438;SDS011;49567;48.958;8.294;2023-04-06T09:00:50;1999.90;;;999.90;;
63438;SDS011;49567;48.958;8.294;2023-04-06T09:03:17;1999.90;;;999.90;;
63438;SDS011;49567;48.958;8.294;2023-04-06T09:05:44;1999.90;;;999.90;;
63438;SDS011;49567;48.958;8.294;2023-04-06T09:08:11;1999.90;;;999.90;;
63438;SDS011;49567;48.958;8.294;2023-04-06T09:10:40;1999.90;;;999.90;;
63438;SDS011;49567;48.958;8.294;2023-04-06T09:13:05;1594.43;;;999.90;;
63438;SDS011;49567;48.958;8.294;2023-04-06T09:15:32;1100.57;;;992.47;;
63438;SDS011;49567;48.958;8.294;2023-04-06T09:17:58;270.00;;;254.07;;
63438;SDS011;49567;48.958;8.294;2023-04-06T09:20:24;37.47;;;35.00;;
63438;SDS011;49567;48.958;8.294;2023-04-06T09:22:55;7.68;;;5.90;;
63438;SDS011;49567;48.958;8.294;2023-04-06T09:25:22;7.93;;;5.43;;
63438;SDS011;49567;48.958;8.294;2023-04-06T09:27:48;6.88;;;5.15;;
63438;SDS011;49567;48.958;8.294;2023-04-06T09:30:22;6.75;;;4.95;;
63438;SDS011;49567;48.958;8.294;2023-04-06T09:32:50;6.13;;;5.53;;
63438;SDS011;49567;48.958;8.294;2023-04-06T09:35:17;6.15;;;5.28;;
63438;SDS011;49567;48.958;8.294;2023-04-06T09:37:45;6.60;;;5.78;;
63438;SDS011;49567;48.958;8.294;2023-04-06T09:40:11;8.80;;;5.25;;
63438;SDS011;49567;48.958;8.294;2023-04-06T09:42:40;7.57;;;5.82;;
63438;SDS011;49567;48.958;8.294;2023-04-06T09:45:06;7.38;;;5.72;;
63438;SDS011;49567;48.958;8.294;2023-04-06T09:47:32;6.47;;;5.75;;
63438;SDS011;49567;48.958;8.294;2023-04-06T09:49:59;9.43;;;5.95;;
63438;SDS011;49567;48.958;8.294;2023-04-06T09:52:37;7.47;;;5.93;;
63438;SDS011;49567;48.958;8.294;2023-04-06T09:55:06;8.55;;;5.65;;
63438;SDS011;49567;48.958;8.294;2023-04-06T09:57:45;7.80;;;6.03;;
63438;SDS011;49567;48.958;8.294;2023-04-06T10:00:23;7.53;;;6.10;;
63438;SDS011;49567;48.958;8.294;2023-04-06T10:02:56;8.23;;;6.28;;
63438;SDS011;49567;48.958;8.294;2023-04-06T10:08:08;9.82;;;5.60;;
63438;SDS011;49567;48.958;8.294;2023-04-06T10:10:34;6.85;;;5.15;;
63438;SDS011;49567;48.958;8.294;2023-04-06T10:13:00;8.30;;;5.63;;
63438;SDS011;49567;48.958;8.294;2023-04-06T10:15:27;8.80;;;5.27;;
63438;SDS011;49567;48.958;8.294;2023-04-06T10:17:53;9.40;;;5.20;;
63438;SDS011;49567;48.958;8.294;2023-04-06T10:20:29;5.20;;;4.70;;
63438;SDS011;49567;48.958;8.294;2023-04-06T10:23:13;11.52;;;7.20;;
63438;SDS011;49567;48.958;8.294;2023-04-06T10:26:02;7.88;;;5.03;;
63438;SDS011;49567;48.958;8.294;2023-04-06T10:28:31;7.80;;;4.82;;
63438;SDS011;49567;48.958;8.294;2023-04-06T10:30:58;6.93;;;5.68;;
63438;SDS011;49567;48.958;8.294;2023-04-06T10:33:25;8.20;;;6.28;;
63438;SDS011;49567;48.958;8.294;2023-04-06T10:35:50;6.47;;;5.38;;
63438;SDS011;49567;48.958;8.294;2023-04-06T10:38:16;5.27;;;4.77;;
63438;SDS011;49567;48.958;8.294;2023-04-06T10:40:46;6.07;;;4.83;;
63438;SDS011;49567;48.958;8.294;2023-04-06T10:43:18;5.67;;;4.83;;
63438;SDS011;49567;48.958;8.294;2023-04-06T10:45:45;5.10;;;4.43;;
63438;SDS011;49567;48.958;8.294;2023-04-06T10:48:20;5.28;;;4.78;;
63438;SDS011;49567;48.958;8.294;2023-04-06T10:50:50;5.80;;;4.85;;
63438;SDS011;49567;48.958;8.294;2023-04-06T10:53:26;4.85;;;4.35;;
63438;SDS011;49567;48.958;8.294;2023-04-06T10:55:53;7.87;;;4.80;;
63438;SDS011;49567;48.958;8.294;2023-04-06T10:58:23;7.03;;;5.07;;
63438;SDS011;49567;48.958;8.294;2023-04-06T11:00:49;6.18;;;5.07;;
63438;SDS011;49567;48.958;8.294;2023-04-06T11:03:15;5.50;;;5.00;;
63438;SDS011;49567;48.958;8.294;2023-04-06T11:05:44;5.10;;;4.53;;
63438;SDS011;49567;48.958;8.294;2023-04-06T11:08:21;6.00;;;4.78;;
63438;SDS011;49567;48.958;8.294;2023-04-06T11:11:08;4.83;;;3.90;;
63438;SDS011;49567;48.958;8.294;2023-04-06T11:18:46;6.13;;;4.73;;
63438;SDS011;49567;48.958;8.294;2023-04-06T11:21:15;5.28;;;4.78;;
63438;SDS011;49567;48.958;8.294;2023-04-06T11:23:41;4.43;;;4.13;;
63438;SDS011;49567;48.958;8.294;2023-04-06T11:26:10;5.27;;;4.43;;
63438;SDS011;49567;48.958;8.294;2023-04-06T11:28:36;5.90;;;4.90;;
63438;SDS011;49567;48.958;8.294;2023-04-06T11:31:08;8.30;;;5.22;;
63438;SDS011;49567;48.958;8.294;2023-04-06T11:33:36;6.13;;;5.30;;
63438;SDS011;49567;48.958;8.294;2023-04-06T11:36:02;5.28;;;4.78;;
63438;SDS011;49567;48.958;8.294;2023-04-06T11:38:28;7.73;;;4.90;;
63438;SDS011;49567;48.958;8.294;2023-04-06T11:40:54;4.90;;;4.40;;
63438;SDS011;49567;48.958;8.294;2023-04-06T11:43:27;8.10;;;5.67;;
63438;SDS011;49567;48.958;8.294;2023-04-06T11:45:59;5.95;;;4.72;;
63438;SDS011;49567;48.958;8.294;2023-04-06T11:48:28;6.07;;;4.68;;
63438;SDS011;49567;48.958;8.294;2023-04-06T11:50:57;10.10;;;6.55;;
63438;SDS011;49567;48.958;8.294;2023-04-06T11:53:25;5.43;;;4.82;;
63438;SDS011;49567;48.958;8.294;2023-04-06T11:55:51;6.20;;;4.73;;
63438;SDS011;49567;48.958;8.294;2023-04-06T11:58:16;6.00;;;4.40;;
63438;SDS011;49567;48.958;8.294;2023-04-06T12:00:43;6.57;;;4.80;;
63438;SDS011;49567;48.958;8.294;2023-04-06T12:03:10;6.68;;;4.82;;
63438;SDS011;49567;48.958;8.294;2023-04-06T12:05:36;5.97;;;4.90;;
63438;SDS011;49567;48.958;8.294;2023-04-06T12:08:02;4.40;;;4.00;;
63438;SDS011;49567;48.958;8.294;2023-04-06T12:10:27;5.17;;;4.67;;
63438;SDS011;49567;48.958;8.294;2023-04-06T12:12:52;7.47;;;4.60;;
63438;SDS011;49567;48.958;8.294;2023-04-06T12:15:18;5.30;;;4.88;;
63438;SDS011;49567;48.958;8.294;2023-04-06T12:17:43;4.55;;;4.13;;
63438;SDS011;49567;48.958;8.294;2023-04-06T12:20:08;7.03;;;4.40;;
63438;SDS011;49567;48.958;8.294;2023-04-06T12:22:34;4.32;;;3.92;;
63438;SDS011;49567;48.958;8.294;2023-04-06T12:25:01;4.35;;;3.97;;
63438;SDS011;49567;48.958;8.294;2023-04-06T12:27:26;6.23;;;4.20;;
63438;SDS011;49567;48.958;8.294;2023-04-06T12:29:53;4.20;;;3.90;;
63438;SDS011;49567;48.958;8.294;2023-04-06T12:32:18;4.87;;;4.47;;
63438;SDS011;49567;48.958;8.294;2023-04-06T12:34:44;5.47;;;4.43;;
63438;SDS011;49567;48.958;8.294;2023-04-06T12:37:09;6.37;;;4.67;;
63438;SDS011;49567;48.958;8.294;2023-04-06T12:39:34;4.87;;;4.47;;
63438;SDS011;49567;48.958;8.294;2023-04-06T12:42:00;5.87;;;4.13;;
63438;SDS011;49567;48.958;8.294;2023-04-06T12:44:26;5.32;;;4.13;;
63438;SDS011;49567;48.958;8.294;2023-04-06T12:46:51;5.40;;;3.90;;
63438;SDS011;49567;48.958;8.294;2023-04-06T12:49:17;5.10;;;4.40;;
63438;SDS011;49567;48.958;8.294;2023-04-06T12:51:49;5.32;;;4.25;;
63438;SDS011;49567;48.958;8.294;2023-04-06T12:54:15;4.10;;;3.80;;
63438;SDS011;49567;48.958;8.294;2023-04-06T12:56:40;4.20;;;3.80;;
63438;SDS011;49567;48.958;8.294;2023-04-06T12:59:06;4.37;;;3.97;;
63438;SDS011;49567;48.958;8.294;2023-04-06T13:01:32;4.72;;;3.72;;
63438;SDS011;49567;48.958;8.294;2023-04-06T13:03:57;3.93;;;3.63;;
63438;SDS011;49567;48.958;8.294;2023-04-06T13:06:24;4.23;;;3.93;;
63438;SDS011;49567;48.958;8.294;2023-04-06T13:08:52;3.83;;;3.30;;
63438;SDS011;49567;48.958;8.294;2023-04-06T13:11:17;4.60;;;4.07;;
63438;SDS011;49567;48.958;8.294;2023-04-06T13:13:45;4.28;;;3.88;;
63438;SDS011;49567;48.958;8.294;2023-04-06T13:16:10;4.70;;;4.30;;
63438;SDS011;49567;48.958;8.294;2023-04-06T13:18:35;3.87;;;3.57;;
63438;SDS011;49567;48.958;8.294;2023-04-06T13:21:03;3.97;;;3.67;;
63438;SDS011;49567;48.958;8.294;2023-04-06T13:23:29;5.68;;;5.05;;
63438;SDS011;49567;48.958;8.294;2023-04-06T13:25:58;6.70;;;4.77;;
63438;SDS011;49567;48.958;8.294;2023-04-06T13:28:28;4.68;;;4.10;;
63438;SDS011;49567;48.958;8.294;2023-04-06T13:30:54;4.13;;;3.72;;
63438;SDS011;49567;48.958;8.294;2023-04-06T13:33:20;4.72;;;3.70;;
63438;SDS011;49567;48.958;8.294;2023-04-06T13:35:46;4.00;;;3.67;;
63438;SDS011;49567;48.958;8.294;2023-04-06T13:38:11;4.47;;;4.07;;
63438;SDS011;49567;48.958;8.294;2023-04-06T13:40:40;4.37;;;3.97;;
63438;SDS011;49567;48.958;8.294;2023-04-06T13:43:06;4.13;;;3.70;;
63438;SDS011;49567;48.958;8.294;2023-04-06T13:45:32;5.30;;;4.00;;
63438;SDS011;49567;48.958;8.294;2023-04-06T13:47:57;6.67;;;4.70;;
63438;SDS011;49567;48.958;8.294;2023-04-06T13:50:25;36.23;;;6.00;;
63438;SDS011;49567;48.958;8.294;2023-04-06T13:52:53;8.33;;;3.90;;
63438;SDS011;49567;48.958;8.294;2023-04-06T13:55:18;7.38;;;4.10;;
63438;SDS011;49567;48.958;8.294;2023-04-06T13:57:43;7.60;;;4.17;;
63438;SDS011;49567;48.958;8.294;2023-04-06T14:00:09;4.37;;;3.93;;
63438;SDS011;49567;48.958;8.294;2023-04-06T14:02:36;5.07;;;4.30;;
63438;SDS011;49567;48.958;8.294;2023-04-06T14:05:02;5.38;;;4.53;;
63438;SDS011;49567;48.958;8.294;2023-04-06T14:07:28;6.95;;;4.63;;
63438;SDS011;49567;48.958;8.294;2023-04-06T14:09:53;7.67;;;4.90;;
63438;SDS011;49567;48.958;8.294;2023-04-06T14:12:18;7.17;;;4.57;;
63438;SDS011;49567;48.958;8.294;2023-04-06T14:14:44;4.68;;;4.22;;
63438;SDS011;49567;48.958;8.294;2023-04-06T14:17:09;5.00;;;4.50;;
63438;SDS011;49567;48.958;8.294;2023-04-06T14:19:35;7.97;;;5.18;;
63438;SDS011;49567;48.958;8.294;2023-04-06T14:22:01;8.47;;;5.13;;
63438;SDS011;49567;48.958;8.294;2023-04-06T14:24:26;7.95;;;4.70;;
63438;SDS011;49567;48.958;8.294;2023-04-06T14:26:51;7.73;;;4.47;;